sensor_id;sensor_type;location;lat;lon;timestamp;P1;durP1;ratioP1;P2;durP2;ratioP2
7675;SDS011;3880;51.464;-2.566;2022-09-09T00:00:28;14.23;;;8.37;;
7675;SDS011;3880;51.464;-2.566;2022-09-09T00:03:02;12.87;;;9.13;;
7675;SDS011;3880;51.464;-2.566;2022-09-09T00:05:33;10.47;;;8.23;;
7675;SDS011;3880;51.464;-2.566;2022-09-09T00:08:06;16.80;;;8.43;;
7675;SDS011;3880;51.464;-2.566;2022-09-09T00:10:40;10.53;;;8.17;;
7675;SDS011;3880;51.464;-2.566;2022-09-09T00:13:12;12.57;;;8.43;;
7675;SDS011;3880;51.464;-2.566;2022-09-09T00:15:46;10.00;;;8.30;;
7675;SDS011;3880;51.464;-2.566;2022-09-09T00:18:24;9.17;;;8.27;;
7675;SDS011;3880;51.464;-2.566;2022-09-09T00:20:57;11.63;;;8.03;;
7675;SDS011;3880;51.464;-2.566;2022-09-09T00:23:28;13.10;;;8.37;;
7675;SDS011;3880;51.464;-2.566;2022-09-09T00:25:59;15.10;;;8.10;;
7675;SDS011;3880;51.464;-2.566;2022-09-09T00:28:36;12.43;;;7.17;;
7675;SDS011;3880;51.464;-2.566;2022-09-09T00:31:11;9.50;;;6.30;;
7675;SDS011;3880;51.464;-2.566;2022-09-09T00:33:39;10.00;;;5.47;;
7675;SDS011;3880;51.464;-2.566;2022-09-09T00:36:09;11.27;;;5.47;;
7675;SDS011;3880;51.464;-2.566;2022-09-09T00:38:42;10.47;;;5.17;;
7675;SDS011;3880;51.464;-2.566;2022-09-09T00:41:12;8.57;;;4.30;;
7675;SDS011;3880;51.464;-2.566;2022-09-09T00:43:46;6.97;;;4.40;;
7675;SDS011;3880;51.464;-2.566;2022-09-09T00:46:44;5.30;;;4.20;;
7675;SDS011;3880;51.464;-2.566;2022-09-09T00:49:24;4.47;;;3.70;;
7675;SDS011;3880;51.464;-2.566;2022-09-09T00:52:03;7.37;;;3.97;;
7675;SDS011;3880;51.464;-2.566;2022-09-09T00:54:45;6.60;;;3.40;;
7675;SDS011;3880;51.464;-2.566;2022-09-09T00:57:22;12.73;;;4.20;;
7675;SDS011;3880;51.464;-2.566;2022-09-09T00:59:57;4.33;;;3.40;;
7675;SDS011;3880;51.464;-2.566;2022-09-09T01:02:43;5.93;;;3.60;;
7675;SDS011;3880;51.464;-2.566;2022-09-09T01:05:35;4.10;;;3.33;;
7675;SDS011;3880;51.464;-2.566;2022-09-09T01:08:10;7.77;;;3.60;;
7675;SDS011;3880;51.464;-2.566;2022-09-09T01:10:56;4.23;;;3.43;;
7675;SDS011;3880;51.464;-2.566;2022-09-09T01:13:25;7.37;;;3.30;;
7675;SDS011;3880;51.464;-2.566;2022-09-09T01:15:56;3.53;;;3.23;;
7675;SDS011;3880;51.464;-2.566;2022-09-09T01:18:26;4.00;;;2.87;;
7675;SDS011;3880;51.464;-2.566;2022-09-09T01:21:01;6.17;;;4.03;;
7675;SDS011;3880;51.464;-2.566;2022-09-09T01:23:41;10.67;;;3.93;;
7675;SDS011;3880;51.464;-2.566;2022-09-09T01:26:22;9.67;;;3.90;;
7675;SDS011;3880;51.464;-2.566;2022-09-09T01:28:53;3.63;;;3.03;;
7675;SDS011;3880;51.464;-2.566;2022-09-09T01:31:21;3.83;;;3.53;;
7675;SDS011;3880;51.464;-2.566;2022-09-09T01:33:52;8.97;;;3.77;;
7675;SDS011;3880;51.464;-2.566;2022-09-09T01:36:21;10.50;;;3.30;;
7675;SDS011;3880;51.464;-2.566;2022-09-09T01:38:55;7.13;;;3.00;;
7675;SDS011;3880;51.464;-2.566;2022-09-09T01:41:24;5.03;;;3.30;;
7675;SDS011;3880;51.464;-2.566;2022-09-09T01:43:52;3.93;;;3.10;;
7675;SDS011;3880;51.464;-2.566;2022-09-09T01:46:21;9.93;;;4.27;;
7675;SDS011;3880;51.464;-2.566;2022-09-09T01:48:49;6.83;;;3.97;;
7675;SDS011;3880;51.464;-2.566;2022-09-09T01:51:17;5.23;;;2.97;;
7675;SDS011;3880;51.464;-2.566;2022-09-09T01:53:44;5.60;;;3.33;;
7675;SDS011;3880;51.464;-2.566;2022-09-09T01:56:16;10.07;;;3.63;;
7675;SDS011;3880;51.464;-2.566;2022-09-09T01:58:55;11.43;;;3.93;;
7675;SDS011;3880;51.464;-2.566;2022-09-09T02:01:37;11.43;;;3.57;;
7675;SDS011;3880;51.464;-2.566;2022-09-09T02:04:15;6.13;;;3.20;;
7675;SDS011;3880;51.464;-2.566;2022-09-09T02:06:51;4.53;;;3.00;;
7675;SDS011;3880;51.464;-2.566;2022-09-09T02:09:22;4.40;;;3.13;;
7675;SDS011;3880;51.464;-2.566;2022-09-09T02:11:53;6.37;;;3.13;;
7675;SDS011;3880;51.464;-2.566;2022-09-09T02:14:30;6.57;;;3.47;;
7675;SDS011;3880;51.464;-2.566;2022-09-09T02:17:01;6.57;;;3.63;;
7675;SDS011;3880;51.464;-2.566;2022-09-09T02:19:34;3.93;;;2.93;;
7675;SDS011;3880;51.464;-2.566;2022-09-09T02:22:04;9.63;;;4.27;;
7675;SDS011;3880;51.464;-2.566;2022-09-09T02:24:32;6.83;;;3.07;;
7675;SDS011;3880;51.464;-2.566;2022-09-09T02:27:03;5.83;;;4.07;;
7675;SDS011;3880;51.464;-2.566;2022-09-09T02:29:36;3.67;;;3.10;;
7675;SDS011;3880;51.464;-2.566;2022-09-09T02:32:08;4.17;;;2.43;;
7675;SDS011;3880;51.464;-2.566;2022-09-09T02:34:40;5.83;;;3.17;;
7675;SDS011;3880;51.464;-2.566;2022-09-09T02:37:10;4.80;;;2.30;;
7675;SDS011;3880;51.464;-2.566;2022-09-09T02:39:39;2.67;;;2.40;;
7675;SDS011;3880;51.464;-2.566;2022-09-09T02:42:05;4.90;;;2.77;;
7675;SDS011;3880;51.464;-2.566;2022-09-09T02:44:34;4.83;;;2.93;;
7675;SDS011;3880;51.464;-2.566;2022-09-09T02:47:07;4.03;;;2.53;;
7675;SDS011;3880;51.464;-2.566;2022-09-09T02:49:44;7.23;;;2.83;;
7675;SDS011;3880;51.464;-2.566;2022-09-09T02:52:20;5.33;;;2.30;;
7675;SDS011;3880;51.464;-2.566;2022-09-09T02:54:53;6.70;;;2.60;;
7675;SDS011;3880;51.464;-2.566;2022-09-09T02:57:26;3.57;;;2.10;;
7675;SDS011;3880;51.464;-2.566;2022-09-09T02:59:58;2.60;;;2.40;;
7675;SDS011;3880;51.464;-2.566;2022-09-09T03:02:25;2.77;;;2.17;;
7675;SDS011;3880;51.464;-2.566;2022-09-09T03:04:52;7.13;;;2.43;;
7675;SDS011;3880;51.464;-2.566;2022-09-09T03:07:19;3.43;;;2.73;;
7675;SDS011;3880;51.464;-2.566;2022-09-09T03:09:47;6.70;;;2.50;;
7675;SDS011;3880;51.464;-2.566;2022-09-09T03:12:14;3.53;;;2.60;;
7675;SDS011;3880;51.464;-2.566;2022-09-09T03:14:41;5.50;;;2.60;;
7675;SDS011;3880;51.464;-2.566;2022-09-09T03:17:10;4.90;;;2.27;;
7675;SDS011;3880;51.464;-2.566;2022-09-09T03:19:38;3.80;;;2.30;;
7675;SDS011;3880;51.464;-2.566;2022-09-09T03:22:06;7.63;;;3.10;;
7675;SDS011;3880;51.464;-2.566;2022-09-09T03:24:35;6.63;;;2.30;;
7675;SDS011;3880;51.464;-2.566;2022-09-09T03:27:02;7.10;;;2.33;;
7675;SDS011;3880;51.464;-2.566;2022-09-09T03:29:29;8.67;;;3.20;;
7675;SDS011;3880;51.464;-2.566;2022-09-09T03:31:56;2.60;;;2.23;;
7675;SDS011;3880;51.464;-2.566;2022-09-09T03:34:24;4.93;;;2.30;;
7675;SDS011;3880;51.464;-2.566;2022-09-09T03:36:52;2.80;;;1.93;;
7675;SDS011;3880;51.464;-2.566;2022-09-09T03:39:19;3.87;;;2.60;;
7675;SDS011;3880;51.464;-2.566;2022-09-09T03:41:46;3.93;;;2.30;;
7675;SDS011;3880;51.464;-2.566;2022-09-09T03:44:13;5.43;;;2.30;;
7675;SDS011;3880;51.464;-2.566;2022-09-09T03:46:40;6.97;;;2.20;;
7675;SDS011;3880;51.464;-2.566;2022-09-09T03:49:07;5.60;;;2.23;;
7675;SDS011;3880;51.464;-2.566;2022-09-09T03:51:36;3.13;;;2.07;;
7675;SDS011;3880;51.464;-2.566;2022-09-09T03:54:05;5.03;;;2.17;;
7675;SDS011;3880;51.464;-2.566;2022-09-09T03:56:35;4.47;;;2.30;;
7675;SDS011;3880;51.464;-2.566;2022-09-09T03:59:02;4.73;;;2.40;;
7675;SDS011;3880;51.464;-2.566;2022-09-09T04:01:30;2.27;;;2.00;;
7675;SDS011;3880;51.464;-2.566;2022-09-09T04:03:57;3.13;;;2.30;;
7675;SDS011;3880;51.464;-2.566;2022-09-09T04:06:24;3.37;;;2.10;;
7675;SDS011;3880;51.464;-2.566;2022-09-09T04:08:53;4.80;;;2.17;;
7675;SDS011;3880;51.464;-2.566;2022-09-09T04:11:20;7.40;;;2.20;;
7675;SDS011;3880;51.464;-2.566;2022-09-09T04:13:48;4.57;;;2.47;;
7675;SDS011;3880;51.464;-2.566;2022-09-09T04:16:15;3.67;;;2.17;;
7675;SDS011;3880;51.464;-2.566;2022-09-09T04:18:42;5.03;;;2.43;;
7675;SDS011;3880;51.464;-2.566;2022-09-09T04:21:10;2.53;;;1.87;;
7675;SDS011;3880;51.464;-2.566;2022-09-09T04:23:38;4.40;;;2.87;;
7675;SDS011;3880;51.464;-2.566;2022-09-09T04:26:07;4.90;;;2.23;;
7675;SDS011;3880;51.464;-2.566;2022-09-09T04:28:35;5.00;;;2.60;;
7675;SDS011;3880;51.464;-2.566;2022-09-09T04:31:04;3.63;;;2.27;;
7675;SDS011;3880;51.464;-2.566;2022-09-09T04:33:32;8.10;;;2.50;;
7675;SDS011;3880;51.464;-2.566;2022-09-09T04:35:59;4.07;;;2.13;;
7675;SDS011;3880;51.464;-2.566;2022-09-09T04:38:27;4.80;;;2.20;;
7675;SDS011;3880;51.464;-2.566;2022-09-09T04:40:54;5.33;;;2.23;;
7675;SDS011;3880;51.464;-2.566;2022-09-09T04:43:22;3.90;;;1.90;;
7675;SDS011;3880;51.464;-2.566;2022-09-09T04:45:50;4.90;;;2.17;;
7675;SDS011;3880;51.464;-2.566;2022-09-09T04:48:18;7.20;;;2.13;;
7675;SDS011;3880;51.464;-2.566;2022-09-09T04:50:53;2.93;;;2.13;;
7675;SDS011;3880;51.464;-2.566;2022-09-09T04:53:20;4.70;;;1.93;;
7675;SDS011;3880;51.464;-2.566;2022-09-09T04:55:48;10.57;;;2.00;;
7675;SDS011;3880;51.464;-2.566;2022-09-09T04:58:15;3.13;;;1.80;;
7675;SDS011;3880;51.464;-2.566;2022-09-09T05:00:43;4.40;;;1.80;;
7675;SDS011;3880;51.464;-2.566;2022-09-09T05:03:11;5.03;;;2.13;;
7675;SDS011;3880;51.464;-2.566;2022-09-09T05:05:38;6.40;;;2.00;;
7675;SDS011;3880;51.464;-2.566;2022-09-09T05:08:06;4.03;;;2.00;;
7675;SDS011;3880;51.464;-2.566;2022-09-09T05:10:34;3.57;;;1.50;;
7675;SDS011;3880;51.464;-2.566;2022-09-09T05:13:04;2.43;;;1.47;;
7675;SDS011;3880;51.464;-2.566;2022-09-09T05:15:31;6.37;;;1.80;;
7675;SDS011;3880;51.464;-2.566;2022-09-09T05:18:00;7.17;;;1.90;;
7675;SDS011;3880;51.464;-2.566;2022-09-09T05:20:28;5.53;;;1.70;;
7675;SDS011;3880;51.464;-2.566;2022-09-09T05:22:55;2.43;;;1.63;;
7675;SDS011;3880;51.464;-2.566;2022-09-09T05:25:22;2.13;;;1.60;;
7675;SDS011;3880;51.464;-2.566;2022-09-09T05:27:51;5.03;;;2.30;;
7675;SDS011;3880;51.464;-2.566;2022-09-09T05:30:18;3.83;;;1.83;;
7675;SDS011;3880;51.464;-2.566;2022-09-09T05:32:47;6.53;;;2.20;;
7675;SDS011;3880;51.464;-2.566;2022-09-09T05:35:16;4.27;;;1.40;;
7675;SDS011;3880;51.464;-2.566;2022-09-09T05:37:44;4.53;;;1.43;;
7675;SDS011;3880;51.464;-2.566;2022-09-09T05:40:11;6.57;;;1.87;;
7675;SDS011;3880;51.464;-2.566;2022-09-09T05:42:39;3.93;;;2.27;;
7675;SDS011;3880;51.464;-2.566;2022-09-09T05:45:06;6.10;;;2.73;;
7675;SDS011;3880;51.464;-2.566;2022-09-09T05:47:34;7.43;;;1.90;;
7675;SDS011;3880;51.464;-2.566;2022-09-09T05:50:02;3.77;;;1.80;;
7675;SDS011;3880;51.464;-2.566;2022-09-09T05:52:31;2.30;;;1.40;;
7675;SDS011;3880;51.464;-2.566;2022-09-09T05:54:58;5.37;;;1.87;;
7675;SDS011;3880;51.464;-2.566;2022-09-09T05:57:25;3.00;;;1.27;;
7675;SDS011;3880;51.464;-2.566;2022-09-09T05:59:52;6.53;;;2.07;;
7675;SDS011;3880;51.464;-2.566;2022-09-09T06:02:19;4.33;;;2.17;;
7675;SDS011;3880;51.464;-2.566;2022-09-09T06:04:46;3.37;;;1.67;;
7675;SDS011;3880;51.464;-2.566;2022-09-09T06:07:13;8.57;;;2.13;;
7675;SDS011;3880;51.464;-2.566;2022-09-09T06:09:42;4.80;;;2.07;;
7675;SDS011;3880;51.464;-2.566;2022-09-09T06:12:09;4.17;;;1.90;;
7675;SDS011;3880;51.464;-2.566;2022-09-09T06:14:36;8.00;;;2.10;;
7675;SDS011;3880;51.464;-2.566;2022-09-09T06:17:03;1.77;;;1.40;;
7675;SDS011;3880;51.464;-2.566;2022-09-09T06:19:31;7.83;;;2.27;;
7675;SDS011;3880;51.464;-2.566;2022-09-09T06:21:58;3.93;;;2.30;;
7675;SDS011;3880;51.464;-2.566;2022-09-09T06:24:25;7.37;;;3.60;;
7675;SDS011;3880;51.464;-2.566;2022-09-09T06:26:56;4.80;;;2.17;;
7675;SDS011;3880;51.464;-2.566;2022-09-09T06:29:23;4.80;;;2.27;;
7675;SDS011;3880;51.464;-2.566;2022-09-09T06:31:50;5.47;;;2.10;;
7675;SDS011;3880;51.464;-2.566;2022-09-09T06:34:17;11.03;;;5.10;;
7675;SDS011;3880;51.464;-2.566;2022-09-09T06:36:44;8.53;;;3.23;;
7675;SDS011;3880;51.464;-2.566;2022-09-09T06:39:12;4.23;;;2.97;;
7675;SDS011;3880;51.464;-2.566;2022-09-09T06:41:40;9.77;;;3.17;;
7675;SDS011;3880;51.464;-2.566;2022-09-09T06:44:10;8.20;;;3.00;;
7675;SDS011;3880;51.464;-2.566;2022-09-09T06:46:37;8.57;;;3.07;;
7675;SDS011;3880;51.464;-2.566;2022-09-09T06:49:05;3.67;;;2.57;;
7675;SDS011;3880;51.464;-2.566;2022-09-09T06:51:34;2.83;;;1.87;;
7675;SDS011;3880;51.464;-2.566;2022-09-09T06:54:07;10.10;;;2.40;;
7675;SDS011;3880;51.464;-2.566;2022-09-09T06:56:35;3.30;;;1.87;;
7675;SDS011;3880;51.464;-2.566;2022-09-09T06:59:05;3.47;;;1.83;;
7675;SDS011;3880;51.464;-2.566;2022-09-09T07:01:36;4.50;;;1.77;;
7675;SDS011;3880;51.464;-2.566;2022-09-09T07:04:05;6.40;;;2.80;;
7675;SDS011;3880;51.464;-2.566;2022-09-09T07:06:35;2.53;;;2.20;;
7675;SDS011;3880;51.464;-2.566;2022-09-09T07:09:03;9.27;;;3.20;;
7675;SDS011;3880;51.464;-2.566;2022-09-09T07:11:34;4.03;;;1.80;;
7675;SDS011;3880;51.464;-2.566;2022-09-09T07:14:03;3.63;;;1.70;;
7675;SDS011;3880;51.464;-2.566;2022-09-09T07:16:30;4.73;;;2.10;;
7675;SDS011;3880;51.464;-2.566;2022-09-09T07:18:59;4.13;;;2.07;;
7675;SDS011;3880;51.464;-2.566;2022-09-09T07:21:27;7.50;;;2.30;;
7675;SDS011;3880;51.464;-2.566;2022-09-09T07:23:56;4.17;;;1.90;;
7675;SDS011;3880;51.464;-2.566;2022-09-09T07:26:24;4.50;;;2.03;;
7675;SDS011;3880;51.464;-2.566;2022-09-09T07:28:52;4.17;;;1.83;;
7675;SDS011;3880;51.464;-2.566;2022-09-09T07:31:21;7.67;;;2.10;;
7675;SDS011;3880;51.464;-2.566;2022-09-09T07:33:50;6.53;;;1.97;;
7675;SDS011;3880;51.464;-2.566;2022-09-09T07:36:19;5.07;;;2.37;;
7675;SDS011;3880;51.464;-2.566;2022-09-09T07:38:48;6.87;;;2.07;;
7675;SDS011;3880;51.464;-2.566;2022-09-09T07:41:18;4.90;;;1.93;;
7675;SDS011;3880;51.464;-2.566;2022-09-09T07:43:47;7.53;;;2.80;;
7675;SDS011;3880;51.464;-2.566;2022-09-09T07:46:16;4.80;;;1.90;;
7675;SDS011;3880;51.464;-2.566;2022-09-09T07:48:45;6.93;;;2.30;;
7675;SDS011;3880;51.464;-2.566;2022-09-09T07:51:17;8.53;;;2.10;;
7675;SDS011;3880;51.464;-2.566;2022-09-09T07:53:47;5.40;;;2.30;;
7675;SDS011;3880;51.464;-2.566;2022-09-09T07:56:18;6.77;;;2.00;;
7675;SDS011;3880;51.464;-2.566;2022-09-09T07:58:47;4.50;;;2.03;;
7675;SDS011;3880;51.464;-2.566;2022-09-09T08:01:15;4.47;;;1.70;;
7675;SDS011;3880;51.464;-2.566;2022-09-09T08:03:43;5.23;;;1.93;;
7675;SDS011;3880;51.464;-2.566;2022-09-09T08:06:11;3.07;;;1.60;;
7675;SDS011;3880;51.464;-2.566;2022-09-09T08:08:41;2.17;;;1.97;;
7675;SDS011;3880;51.464;-2.566;2022-09-09T08:11:09;3.73;;;1.53;;
7675;SDS011;3880;51.464;-2.566;2022-09-09T08:13:43;2.30;;;1.50;;
7675;SDS011;3880;51.464;-2.566;2022-09-09T08:16:11;3.33;;;1.37;;
7675;SDS011;3880;51.464;-2.566;2022-09-09T08:18:41;5.03;;;1.80;;
7675;SDS011;3880;51.464;-2.566;2022-09-09T08:21:10;5.43;;;1.70;;
7675;SDS011;3880;51.464;-2.566;2022-09-09T08:23:38;5.07;;;1.90;;
7675;SDS011;3880;51.464;-2.566;2022-09-09T08:26:10;3.20;;;1.57;;
7675;SDS011;3880;51.464;-2.566;2022-09-09T08:28:39;2.53;;;1.20;;
7675;SDS011;3880;51.464;-2.566;2022-09-09T08:31:10;5.30;;;1.90;;
7675;SDS011;3880;51.464;-2.566;2022-09-09T08:33:39;4.57;;;1.30;;
7675;SDS011;3880;51.464;-2.566;2022-09-09T08:36:08;2.33;;;1.13;;
7675;SDS011;3880;51.464;-2.566;2022-09-09T08:38:37;3.70;;;1.57;;
7675;SDS011;3880;51.464;-2.566;2022-09-09T08:41:13;2.07;;;1.50;;
7675;SDS011;3880;51.464;-2.566;2022-09-09T08:44:04;2.03;;;1.30;;
7675;SDS011;3880;51.464;-2.566;2022-09-09T08:46:39;2.63;;;1.30;;
7675;SDS011;3880;51.464;-2.566;2022-09-09T08:49:16;4.57;;;1.20;;
7675;SDS011;3880;51.464;-2.566;2022-09-09T08:51:58;5.10;;;1.10;;
7675;SDS011;3880;51.464;-2.566;2022-09-09T08:54:25;3.73;;;1.53;;
7675;SDS011;3880;51.464;-2.566;2022-09-09T08:57:00;1.77;;;1.33;;
7675;SDS011;3880;51.464;-2.566;2022-09-09T08:59:28;2.73;;;1.50;;
7675;SDS011;3880;51.464;-2.566;2022-09-09T09:02:00;4.30;;;1.50;;
7675;SDS011;3880;51.464;-2.566;2022-09-09T09:04:43;3.97;;;1.57;;
7675;SDS011;3880;51.464;-2.566;2022-09-09T09:07:18;2.93;;;1.43;;
7675;SDS011;3880;51.464;-2.566;2022-09-09T09:09:56;5.63;;;1.37;;
7675;SDS011;3880;51.464;-2.566;2022-09-09T09:12:32;1.37;;;1.20;;
7675;SDS011;3880;51.464;-2.566;2022-09-09T09:15:09;1.80;;;1.27;;
7675;SDS011;3880;51.464;-2.566;2022-09-09T09:17:43;3.80;;;1.10;;
7675;SDS011;3880;51.464;-2.566;2022-09-09T09:20:12;2.77;;;1.27;;
7675;SDS011;3880;51.464;-2.566;2022-09-09T09:22:44;2.63;;;1.27;;
7675;SDS011;3880;51.464;-2.566;2022-09-09T09:25:16;3.50;;;1.67;;
7675;SDS011;3880;51.464;-2.566;2022-09-09T09:27:49;3.53;;;1.60;;
7675;SDS011;3880;51.464;-2.566;2022-09-09T09:30:22;2.33;;;1.30;;
7675;SDS011;3880;51.464;-2.566;2022-09-09T09:32:53;2.90;;;1.10;;
7675;SDS011;3880;51.464;-2.566;2022-09-09T09:35:22;1.63;;;1.23;;
7675;SDS011;3880;51.464;-2.566;2022-09-09T09:37:50;3.53;;;1.40;;
7675;SDS011;3880;51.464;-2.566;2022-09-09T09:40:19;3.27;;;1.43;;
7675;SDS011;3880;51.464;-2.566;2022-09-09T09:42:49;5.37;;;1.83;;
7675;SDS011;3880;51.464;-2.566;2022-09-09T09:45:23;3.43;;;1.30;;
7675;SDS011;3880;51.464;-2.566;2022-09-09T09:48:00;2.93;;;1.80;;
7675;SDS011;3880;51.464;-2.566;2022-09-09T09:50:28;1.47;;;1.17;;
7675;SDS011;3880;51.464;-2.566;2022-09-09T09:52:57;2.33;;;1.37;;
7675;SDS011;3880;51.464;-2.566;2022-09-09T09:55:26;3.70;;;1.60;;
7675;SDS011;3880;51.464;-2.566;2022-09-09T09:58:01;3.13;;;2.17;;
7675;SDS011;3880;51.464;-2.566;2022-09-09T10:00:30;3.00;;;1.30;;
7675;SDS011;3880;51.464;-2.566;2022-09-09T10:02:58;1.73;;;1.13;;
7675;SDS011;3880;51.464;-2.566;2022-09-09T10:05:27;5.17;;;1.20;;
7675;SDS011;3880;51.464;-2.566;2022-09-09T10:08:03;2.30;;;1.20;;
7675;SDS011;3880;51.464;-2.566;2022-09-09T10:10:38;2.03;;;1.40;;
7675;SDS011;3880;51.464;-2.566;2022-09-09T10:13:25;2.87;;;1.67;;
7675;SDS011;3880;51.464;-2.566;2022-09-09T10:16:01;1.50;;;1.37;;
7675;SDS011;3880;51.464;-2.566;2022-09-09T10:18:45;2.67;;;1.00;;
7675;SDS011;3880;51.464;-2.566;2022-09-09T10:21:30;4.03;;;1.73;;
7675;SDS011;3880;51.464;-2.566;2022-09-09T10:24:13;1.90;;;1.27;;
7675;SDS011;3880;51.464;-2.566;2022-09-09T10:27:10;1.47;;;1.10;;
7675;SDS011;3880;51.464;-2.566;2022-09-09T10:29:51;1.03;;;0.93;;
7675;SDS011;3880;51.464;-2.566;2022-09-09T10:32:45;1.30;;;1.20;;
7675;SDS011;3880;51.464;-2.566;2022-09-09T10:35:26;2.20;;;1.30;;
7675;SDS011;3880;51.464;-2.566;2022-09-09T10:38:16;1.50;;;1.30;;
7675;SDS011;3880;51.464;-2.566;2022-09-09T10:43:47;2.37;;;1.50;;
7675;SDS011;3880;51.464;-2.566;2022-09-09T10:46:29;3.43;;;1.80;;
7675;SDS011;3880;51.464;-2.566;2022-09-09T10:49:09;2.77;;;1.30;;
7675;SDS011;3880;51.464;-2.566;2022-09-09T10:51:47;2.70;;;1.60;;
7675;SDS011;3880;51.464;-2.566;2022-09-09T10:54:30;1.90;;;1.80;;
7675;SDS011;3880;51.464;-2.566;2022-09-09T10:57:10;3.03;;;1.57;;
7675;SDS011;3880;51.464;-2.566;2022-09-09T10:59:45;1.60;;;1.50;;
7675;SDS011;3880;51.464;-2.566;2022-09-09T11:02:16;1.83;;;1.47;;
7675;SDS011;3880;51.464;-2.566;2022-09-09T11:04:48;4.40;;;1.30;;
7675;SDS011;3880;51.464;-2.566;2022-09-09T11:07:25;4.57;;;2.23;;
7675;SDS011;3880;51.464;-2.566;2022-09-09T11:09:58;2.80;;;1.70;;
7675;SDS011;3880;51.464;-2.566;2022-09-09T11:12:28;3.97;;;1.40;;
7675;SDS011;3880;51.464;-2.566;2022-09-09T11:15:01;7.43;;;2.00;;
7675;SDS011;3880;51.464;-2.566;2022-09-09T11:17:38;2.47;;;1.75;;
7675;SDS011;3880;51.464;-2.566;2022-09-09T11:20:11;2.45;;;1.70;;
7675;SDS011;3880;51.464;-2.566;2022-09-09T11:22:39;3.30;;;1.73;;
7675;SDS011;3880;51.464;-2.566;2022-09-09T11:25:15;3.85;;;1.60;;
7675;SDS011;3880;51.464;-2.566;2022-09-09T11:28:01;1.77;;;1.50;;
7675;SDS011;3880;51.464;-2.566;2022-09-09T11:30:39;2.10;;;1.67;;
7675;SDS011;3880;51.464;-2.566;2022-09-09T11:33:23;3.45;;;1.80;;
7675;SDS011;3880;51.464;-2.566;2022-09-09T11:36:03;3.55;;;1.60;;
7675;SDS011;3880;51.464;-2.566;2022-09-09T11:38:43;2.42;;;1.75;;
7675;SDS011;3880;51.464;-2.566;2022-09-09T11:41:11;5.68;;;2.28;;
7675;SDS011;3880;51.464;-2.566;2022-09-09T11:43:40;2.63;;;1.65;;
7675;SDS011;3880;51.464;-2.566;2022-09-09T11:46:10;3.35;;;1.50;;
7675;SDS011;3880;51.464;-2.566;2022-09-09T11:48:42;2.53;;;1.65;;
7675;SDS011;3880;51.464;-2.566;2022-09-09T11:51:11;3.88;;;1.73;;
7675;SDS011;3880;51.464;-2.566;2022-09-09T11:53:49;1.40;;;1.30;;
7675;SDS011;3880;51.464;-2.566;2022-09-09T11:56:25;1.83;;;1.20;;
7675;SDS011;3880;51.464;-2.566;2022-09-09T11:58:56;1.70;;;1.58;;
7675;SDS011;3880;51.464;-2.566;2022-09-09T12:01:30;1.60;;;1.50;;
7675;SDS011;3880;51.464;-2.566;2022-09-09T12:04:16;2.30;;;1.70;;
7675;SDS011;3880;51.464;-2.566;2022-09-09T12:06:54;3.53;;;1.70;;
7675;SDS011;3880;51.464;-2.566;2022-09-09T12:09:28;3.27;;;1.67;;
7675;SDS011;3880;51.464;-2.566;2022-09-09T12:12:27;4.67;;;2.20;;
7675;SDS011;3880;51.464;-2.566;2022-09-09T12:14:58;2.65;;;1.80;;
7675;SDS011;3880;51.464;-2.566;2022-09-09T12:17:45;2.83;;;2.17;;
7675;SDS011;3880;51.464;-2.566;2022-09-09T12:20:16;2.92;;;1.95;;
7675;SDS011;3880;51.464;-2.566;2022-09-09T12:22:48;4.90;;;1.90;;
7675;SDS011;3880;51.464;-2.566;2022-09-09T12:25:46;4.90;;;2.10;;
7675;SDS011;3880;51.464;-2.566;2022-09-09T12:28:20;6.10;;;2.50;;
7675;SDS011;3880;51.464;-2.566;2022-09-09T12:30:53;4.25;;;2.05;;
7675;SDS011;3880;51.464;-2.566;2022-09-09T12:33:33;4.18;;;1.92;;
7675;SDS011;3880;51.464;-2.566;2022-09-09T12:36:02;4.43;;;1.77;;
7675;SDS011;3880;51.464;-2.566;2022-09-09T12:38:34;3.40;;;1.88;;
7675;SDS011;3880;51.464;-2.566;2022-09-09T12:41:02;3.45;;;1.33;;
7675;SDS011;3880;51.464;-2.566;2022-09-09T12:43:30;1.73;;;1.63;;
7675;SDS011;3880;51.464;-2.566;2022-09-09T12:45:57;3.90;;;1.80;;
7675;SDS011;3880;51.464;-2.566;2022-09-09T12:48:32;1.25;;;1.13;;
7675;SDS011;3880;51.464;-2.566;2022-09-09T12:51:03;1.73;;;1.58;;
7675;SDS011;3880;51.464;-2.566;2022-09-09T12:53:34;1.70;;;1.37;;
7675;SDS011;3880;51.464;-2.566;2022-09-09T12:56:04;2.83;;;1.80;;
7675;SDS011;3880;51.464;-2.566;2022-09-09T12:58:33;6.13;;;1.90;;
7675;SDS011;3880;51.464;-2.566;2022-09-09T13:01:03;3.60;;;1.63;;
7675;SDS011;3880;51.464;-2.566;2022-09-09T13:03:32;1.50;;;1.40;;
7675;SDS011;3880;51.464;-2.566;2022-09-09T13:06:11;5.57;;;1.77;;
7675;SDS011;3880;51.464;-2.566;2022-09-09T13:08:39;3.83;;;1.87;;
7675;SDS011;3880;51.464;-2.566;2022-09-09T13:11:09;6.30;;;1.80;;
7675;SDS011;3880;51.464;-2.566;2022-09-09T13:13:41;5.77;;;2.67;;
7675;SDS011;3880;51.464;-2.566;2022-09-09T13:16:18;2.50;;;2.07;;
7675;SDS011;3880;51.464;-2.566;2022-09-09T13:18:46;3.43;;;2.30;;
7675;SDS011;3880;51.464;-2.566;2022-09-09T13:21:15;5.13;;;2.40;;
7675;SDS011;3880;51.464;-2.566;2022-09-09T13:23:47;6.70;;;2.47;;
7675;SDS011;3880;51.464;-2.566;2022-09-09T13:26:21;4.23;;;2.43;;
7675;SDS011;3880;51.464;-2.566;2022-09-09T13:28:50;3.10;;;2.50;;
7675;SDS011;3880;51.464;-2.566;2022-09-09T13:31:20;3.78;;;2.40;;
7675;SDS011;3880;51.464;-2.566;2022-09-09T13:33:48;23.77;;;13.63;;
7675;SDS011;3880;51.464;-2.566;2022-09-09T13:36:16;2.70;;;2.35;;
7675;SDS011;3880;51.464;-2.566;2022-09-09T13:38:56;3.25;;;2.17;;
7675;SDS011;3880;51.464;-2.566;2022-09-09T13:41:26;6.07;;;2.40;;
7675;SDS011;3880;51.464;-2.566;2022-09-09T13:43:57;2.55;;;1.83;;
7675;SDS011;3880;51.464;-2.566;2022-09-09T13:46:26;3.78;;;2.10;;
7675;SDS011;3880;51.464;-2.566;2022-09-09T13:48:58;2.45;;;1.92;;
7675;SDS011;3880;51.464;-2.566;2022-09-09T13:51:32;3.03;;;1.70;;
7675;SDS011;3880;51.464;-2.566;2022-09-09T13:54:02;3.97;;;1.98;;
7675;SDS011;3880;51.464;-2.566;2022-09-09T13:56:30;4.13;;;2.03;;
7675;SDS011;3880;51.464;-2.566;2022-09-09T13:58:57;5.65;;;2.17;;
7675;SDS011;3880;51.464;-2.566;2022-09-09T14:01:24;2.50;;;1.70;;
7675;SDS011;3880;51.464;-2.566;2022-09-09T14:03:52;2.35;;;1.48;;
7675;SDS011;3880;51.464;-2.566;2022-09-09T14:06:19;3.78;;;1.80;;
7675;SDS011;3880;51.464;-2.566;2022-09-09T14:08:49;2.65;;;1.40;;
7675;SDS011;3880;51.464;-2.566;2022-09-09T14:11:16;2.83;;;1.80;;
7675;SDS011;3880;51.464;-2.566;2022-09-09T14:13:44;3.80;;;2.13;;
7675;SDS011;3880;51.464;-2.566;2022-09-09T14:16:11;4.93;;;2.05;;
7675;SDS011;3880;51.464;-2.566;2022-09-09T14:18:38;5.90;;;2.95;;
7675;SDS011;3880;51.464;-2.566;2022-09-09T14:21:05;7.57;;;2.90;;
7675;SDS011;3880;51.464;-2.566;2022-09-09T14:23:34;4.90;;;2.30;;
7675;SDS011;3880;51.464;-2.566;2022-09-09T14:26:02;6.63;;;2.20;;
7675;SDS011;3880;51.464;-2.566;2022-09-09T14:28:29;3.30;;;2.45;;
7675;SDS011;3880;51.464;-2.566;2022-09-09T14:30:58;4.38;;;1.98;;
7675;SDS011;3880;51.464;-2.566;2022-09-09T14:33:27;2.28;;;1.77;;
7675;SDS011;3880;51.464;-2.566;2022-09-09T14:35:55;3.10;;;1.85;;
7675;SDS011;3880;51.464;-2.566;2022-09-09T14:38:23;3.58;;;1.98;;
7675;SDS011;3880;51.464;-2.566;2022-09-09T14:40:50;2.20;;;1.63;;
7675;SDS011;3880;51.464;-2.566;2022-09-09T14:43:18;1.50;;;1.40;;
7675;SDS011;3880;51.464;-2.566;2022-09-09T14:45:46;2.10;;;1.90;;
7675;SDS011;3880;51.464;-2.566;2022-09-09T14:48:15;2.53;;;2.10;;
7675;SDS011;3880;51.464;-2.566;2022-09-09T14:50:42;3.50;;;1.77;;
7675;SDS011;3880;51.464;-2.566;2022-09-09T14:53:09;3.05;;;2.00;;
7675;SDS011;3880;51.464;-2.566;2022-09-09T14:55:37;2.22;;;1.70;;
7675;SDS011;3880;51.464;-2.566;2022-09-09T14:58:04;2.58;;;1.90;;
7675;SDS011;3880;51.464;-2.566;2022-09-09T15:00:33;1.75;;;1.65;;
7675;SDS011;3880;51.464;-2.566;2022-09-09T15:03:01;1.50;;;1.40;;
7675;SDS011;3880;51.464;-2.566;2022-09-09T15:05:28;7.15;;;1.92;;
7675;SDS011;3880;51.464;-2.566;2022-09-09T15:07:57;2.63;;;1.70;;
7675;SDS011;3880;51.464;-2.566;2022-09-09T15:10:24;2.45;;;1.70;;
7675;SDS011;3880;51.464;-2.566;2022-09-09T15:12:51;1.73;;;1.60;;
7675;SDS011;3880;51.464;-2.566;2022-09-09T15:15:19;2.70;;;1.30;;
7675;SDS011;3880;51.464;-2.566;2022-09-09T15:17:47;2.88;;;1.30;;
7675;SDS011;3880;51.464;-2.566;2022-09-09T15:20:14;1.05;;;0.93;;
7675;SDS011;3880;51.464;-2.566;2022-09-09T15:22:42;2.72;;;1.30;;
7675;SDS011;3880;51.464;-2.566;2022-09-09T15:25:09;1.60;;;1.50;;
7675;SDS011;3880;51.464;-2.566;2022-09-09T15:27:37;3.25;;;1.75;;